Anton Chico, New Mexico
Current Conditions -  °F | °C
As of 4:53 AM on Friday 19 Dec 2014 (Local Time) from KLVS Reporting Station
Clear Clear  
Wind Chill: 16°   Ceiling: Unl
Heat Index: 23°   Visibility: 10mi
Dew Point: 16°   Wind: 6mph
Humidity: 74%   Direction: 340°NNW
Pressure: 30.07"   Gusts: NA
Location:  35.2°N, 105.14°W
Report Text: KLVS 191153Z AUTO 34005KT 10SM CLR M05/M09 A3007 RMK AO2 SLP184 I6001 T10501089 11033 21078 53001
Loading
Personal Weather Stations






























Interactive Weather Map New forecast layout! Learn more

10-Day Weather Forecast

Advertisements
Track Severe Weather on mobile